Time;durP1;ratioP1;P1;durP2;ratioP2;P2;SDS_P1;SDS_P2;PMS_P1;PMS_P2;Temp;Humidity;BMP_temperature;BMP_pressure;BME280_temperature;BME280_humidity;BME280_pressure;Samples;Min_cycle;Max_cycle;Signal;HPM_P1;HPM_P2
2022/07/28 00:01:54;;;;;;;5.33;2.20;;;;;;;15.70;66.32;99073.59;2263278;79;20892;-84
2022/07/28 00:04:54;;;;;;;8.08;2.60;;;;;;;15.64;66.46;99074.07;2263399;79;20896;-84
2022/07/28 00:07:55;;;;;;;6.20;3.08;;;;;;;15.56;66.63;99074.04;2263417;78;20896;-84
2022/07/28 00:10:55;;;;;;;7.28;2.85;;;;;;;15.49;66.76;99074.95;2263046;79;20959;-85
2022/07/28 00:13:55;;;;;;;9.90;3.00;;;;;;;15.46;66.94;99064.44;2263238;79;20983;-85
2022/07/28 00:16:56;;;;;;;12.90;3.15;;;;;;;15.44;67.24;99071.02;2263315;79;20927;-85
2022/07/28 00:19:56;;;;;;;124.27;10.70;;;;;;;15.48;67.38;99074.52;2263153;79;21303;-83
2022/07/28 00:22:57;;;;;;;9.18;3.45;;;;;;;15.52;67.44;99077.13;2263453;79;20860;-85
2022/07/28 00:25:57;;;;;;;4.90;3.05;;;;;;;15.62;67.35;99079.34;2263665;79;21019;-85
2022/07/28 00:28:57;;;;;;;7.33;3.15;;;;;;;15.72;67.57;99072.27;2263283;79;20939;-86
2022/07/28 00:31:58;;;;;;;8.43;3.12;;;;;;;15.75;67.42;99069.63;2262898;79;20920;-85
2022/07/28 00:34:58;;;;;;;8.10;3.22;;;;;;;15.77;67.08;99071.81;2262499;79;20924;-85
2022/07/28 00:37:59;;;;;;;9.85;3.58;;;;;;;15.76;67.11;99077.52;2262854;79;20876;-84
2022/07/28 00:41:11;;;;;;;7.10;3.30;;;;;;;15.78;66.94;99078.82;2263029;79;20963;-85
2022/07/28 00:44:11;;;;;;;8.10;3.62;;;;;;;15.76;67.02;99088.05;2236699;79;21394;-84
2022/07/28 00:47:12;;;;;;;9.83;2.87;;;;;;;15.79;67.00;99090.66;2227938;79;20900;-84
2022/07/28 00:50:12;;;;;;;7.97;2.90;;;;;;;15.79;66.93;99093.29;2228269;79;20900;-84
2022/07/28 00:53:13;;;;;;;7.00;2.95;;;;;;;15.83;66.86;99087.13;2228546;79;20896;-84
2022/07/28 00:56:13;;;;;;;6.87;3.35;;;;;;;15.84;66.82;99087.56;2228216;79;21375;-85
2022/07/28 00:59:13;;;;;;;8.85;4.05;;;;;;;15.85;66.88;99084.05;2228525;79;20916;-85
2022/07/28 01:02:14;;;;;;;8.00;3.40;;;;;;;15.83;66.96;99073.97;2228057;79;20963;-85
2022/07/28 01:05:14;;;;;;;7.97;3.47;;;;;;;15.79;67.10;99077.50;2228261;79;20869;-85
2022/07/28 01:08:15;;;;;;;7.45;3.45;;;;;;;15.70;67.37;99077.55;2228195;79;20932;-85
2022/07/28 01:11:15;;;;;;;7.53;3.00;;;;;;;15.60;67.58;99065.28;2228738;79;20869;-85
2022/07/28 01:14:16;;;;;;;5.50;2.77;;;;;;;15.54;68.08;99069.22;2228439;79;20971;-84
2022/07/28 01:17:16;;;;;;;5.42;3.40;;;;;;;15.45;67.83;99071.89;2228311;79;20900;-84
2022/07/28 01:20:16;;;;;;;5.17;2.62;;;;;;;15.37;67.86;99069.30;2228536;79;20967;-85
2022/07/28 01:23:17;;;;;;;5.15;3.12;;;;;;;15.27;68.00;99073.72;2228481;80;20897;-84
2022/07/28 01:26:17;;;;;;;4.00;2.58;;;;;;;15.13;68.21;99070.25;2227499;79;21257;-84
2022/07/28 01:29:17;;;;;;;5.10;3.02;;;;;;;15.00;68.50;99073.80;2227820;79;20893;-85
2022/07/28 01:32:18;;;;;;;8.33;2.80;;;;;;;14.94;68.82;99074.69;2228108;79;20901;-86
2022/07/28 01:35:18;;;;;;;4.30;2.83;;;;;;;14.94;68.92;99072.05;2227845;79;20899;-85
2022/07/28 01:38:19;;;;;;;7.85;2.92;;;;;;;14.95;69.15;99076.43;2227739;79;20951;-85
2022/07/28 01:41:19;;;;;;;6.75;3.12;;;;;;;14.96;69.08;99080.81;2228596;79;20913;-85
2022/07/28 01:44:19;;;;;;;4.83;2.70;;;;;;;14.94;68.82;99081.69;2228211;79;21040;-85
2022/07/28 01:47:20;;;;;;;4.53;2.85;;;;;;;14.93;68.74;99079.50;2228686;80;20936;-85
2022/07/28 01:50:20;;;;;;;5.65;2.95;;;;;;;14.95;68.41;99079.50;2228839;79;20904;-86
2022/07/28 01:53:21;;;;;;;7.35;2.72;;;;;;;15.03;68.46;99081.67;2228427;79;21284;-86
2022/07/28 01:56:21;;;;;;;7.60;2.98;;;;;;;15.09;68.29;99084.73;2228523;79;20905;-84
2022/07/28 01:59:21;;;;;;;3.40;2.80;;;;;;;15.12;67.67;99082.97;2228582;79;20936;-85
2022/07/28 02:02:22;;;;;;;3.67;2.60;;;;;;;15.11;67.44;99087.79;2228651;79;20943;-85
2022/07/28 02:05:22;;;;;;;5.60;2.70;;;;;;;15.09;67.06;99084.29;2228558;79;20886;-85
2022/07/28 02:08:23;;;;;;;7.05;3.10;;;;;;;15.08;67.51;99084.30;2227982;79;20952;-85
2022/07/28 02:11:41;;;;;;;4.67;2.52;;;;;;;15.02;67.14;99082.55;2227727;79;21308;-85
2022/07/28 02:14:41;;;;;;;391.12;38.98;;;;;;;15.06;66.87;99079.03;2228272;79;20984;-79
2022/07/28 02:17:42;;;;;;;24.87;5.35;;;;;;;15.10;66.79;99087.80;2228527;79;20952;-86
2022/07/28 02:20:42;;;;;;;11.70;3.75;;;;;;;15.08;66.70;99081.66;2228376;79;20912;-85
2022/07/28 02:23:43;;;;;;;21.15;4.42;;;;;;;15.03;66.90;99076.86;2228411;79;20940;-83
2022/07/28 02:26:43;;;;;;;18.40;4.12;;;;;;;14.98;66.71;99073.80;2229247;79;20904;-86
2022/07/28 02:29:43;;;;;;;15.50;3.83;;;;;;;14.91;66.44;99079.07;2228577;79;20907;-85
2022/07/28 02:32:44;;;;;;;11.05;3.35;;;;;;;14.82;66.68;99077.77;2228308;79;21260;-85
2022/07/28 02:35:44;;;;;;;4.47;2.80;;;;;;;14.76;66.51;99081.28;2227742;79;20913;-85
2022/07/28 02:38:45;;;;;;;6.28;3.37;;;;;;;14.71;66.70;99092.64;2228316;79;20936;-85
2022/07/28 02:41:45;;;;;;;26.93;4.45;;;;;;;14.64;66.63;99095.27;2228499;79;20924;-84
2022/07/28 02:44:45;;;;;;;7.03;3.15;;;;;;;14.62;66.91;99099.66;2254387;78;21011;-85
2022/07/28 02:47:46;;;;;;;4.67;2.92;;;;;;;14.61;66.73;99095.27;2262542;79;20959;-86
2022/07/28 02:50:46;;;;;;;7.40;3.22;;;;;;;14.57;66.64;99100.09;2263110;79;20916;-86
2022/07/28 02:53:47;;;;;;;3.83;3.02;;;;;;;14.51;66.75;99100.53;2262824;79;20920;-86
2022/07/28 02:56:49;;;;;;;6.60;2.92;;;;;;;14.46;66.96;99099.22;2263355;79;20900;-85
2022/07/28 02:59:47;;;;;;;11.12;3.08;;;;;;;14.39;67.03;99104.00;2263798;79;20916;-86
2022/07/28 03:02:48;;;;;;;79.42;6.92;;;;;;;14.36;67.09;99109.25;2263795;79;21380;-84
2022/07/28 03:05:51;;;;;;;8.15;3.30;;;;;;;14.32;67.25;99116.24;2263777;79;20916;-86
2022/07/28 03:08:52;;;;;;;6.03;3.33;;;;;;;14.28;67.35;99121.05;2264267;78;20873;-85
2022/07/28 03:11:52;;;;;;;7.10;3.47;;;;;;;14.24;67.46;99124.98;2263974;79;20956;-86
2022/07/28 03:14:52;;;;;;;7.92;3.80;;;;;;;14.19;67.59;99125.41;2263747;79;20916;-85
2022/07/28 03:17:53;;;;;;;12.25;3.35;;;;;;;14.17;67.60;99129.78;2264051;79;20921;-85
2022/07/28 03:20:53;;;;;;;149.40;12.58;;;;;;;14.20;67.38;99136.36;2264123;79;20975;-85
2022/07/28 03:23:54;;;;;;;13.18;3.35;;;;;;;14.26;67.24;99140.30;2264449;79;20903;-83
2022/07/28 03:26:54;;;;;;;6.33;3.80;;;;;;;14.32;67.19;99144.25;2262886;79;20936;-85
2022/07/28 03:29:54;;;;;;;9.18;3.83;;;;;;;14.37;67.07;99147.77;2263156;79;20904;-85
2022/07/28 03:32:55;;;;;;;13.45;4.00;;;;;;;14.43;67.26;99149.55;2263384;79;20913;-85
2022/07/28 03:35:55;;;;;;;22.00;4.03;;;;;;;14.49;66.92;99155.69;2262800;79;20975;-85
2022/07/28 03:38:56;;;;;;;15.15;4.10;;;;;;;14.57;66.99;99152.63;2263227;79;20971;-87
2022/07/28 03:41:57;;;;;;;9.60;3.72;;;;;;;14.64;66.43;99162.27;2262992;79;20950;-85
2022/07/28 03:44:56;;;;;;;6.25;3.50;;;;;;;14.71;66.67;99157.02;2235928;79;21048;-85
2022/07/28 03:47:57;;;;;;;14.35;3.92;;;;;;;14.77;66.56;99162.30;2226662;80;20916;-86
2022/07/28 03:50:57;;;;;;;6.97;3.50;;;;;;;14.84;66.29;99171.94;2226291;79;20901;-85
2022/07/28 03:53:58;;;;;;;12.90;3.75;;;;;;;14.87;65.68;99173.25;2226619;79;20897;-86
2022/07/28 03:56:58;;;;;;;17.32;4.20;;;;;;;14.88;65.66;99175.01;2226214;80;20881;-85
2022/07/28 03:59:58;;;;;;;9.95;3.90;;;;;;;14.87;65.46;99182.45;2226659;79;21315;-85
2022/07/28 04:02:59;;;;;;;9.73;3.42;;;;;;;14.86;65.28;99179.39;2227023;79;20912;-85
2022/07/28 04:05:59;;;;;;;8.20;3.90;;;;;;;14.80;65.28;99177.64;2226914;79;20893;-86
2022/07/28 04:09:00;;;;;;;5.90;3.05;;;;;;;14.80;65.53;99182.02;2227417;79;21295;-85
2022/07/28 04:12:00;;;;;;;8.73;3.75;;;;;;;14.79;65.68;99185.08;2227660;79;20916;-84
2022/07/28 04:15:00;;;;;;;13.08;4.17;;;;;;;14.74;65.56;99183.30;2227197;79;21011;-85
2022/07/28 04:18:01;;;;;;;7.25;3.85;;;;;;;14.74;65.96;99178.95;2226917;79;20901;-86
2022/07/28 04:21:01;;;;;;;6.87;3.87;;;;;;;14.74;65.87;99180.66;2226881;79;20912;-85
2022/07/28 04:24:02;;;;;;;5.05;3.50;;;;;;;14.79;65.91;99184.20;2226980;79;21312;-85
2022/07/28 04:27:02;;;;;;;104.07;11.35;;;;;;;14.88;65.89;99188.15;2226341;80;20952;-84
2022/07/28 04:30:02;;;;;;;10.00;4.42;;;;;;;15.03;65.91;99188.14;2226162;79;20940;-84
2022/07/28 04:33:03;;;;;;;11.80;4.97;;;;;;;15.24;65.68;99197.77;2226802;80;21584;-78
2022/07/28 04:36:03;;;;;;;7.30;4.12;;;;;;;15.34;65.09;99192.05;2227162;79;20908;-85
2022/07/28 04:39:04;;;;;;;7.50;4.20;;;;;;;15.43;64.84;99188.96;2226908;80;20912;-86
2022/07/28 04:42:04;;;;;;;27.40;5.80;;;;;;;15.64;64.84;99184.15;2227117;79;20932;-84
2022/07/28 04:45:04;;;;;;;11.08;4.47;;;;;;;15.82;64.23;99186.72;2226230;78;21418;-85
2022/07/28 04:48:05;;;;;;;78.37;8.53;;;;;;;15.98;64.02;99194.11;2225521;79;20896;-82
2022/07/28 04:51:05;;;;;;;7.25;4.15;;;;;;;16.07;63.63;99180.91;2225794;79;20956;-83
2022/07/28 04:54:06;;;;;;;8.88;4.40;;;;;;;16.19;63.32;99174.69;2226972;79;20897;-84
2022/07/28 04:57:07;;;;;;;10.88;4.40;;;;;;;16.30;62.52;99176.83;2227429;79;21653;-85
2022/07/28 05:00:13;;;;;;;6.97;4.22;;;;;;;16.43;62.11;99181.14;2227175;79;20924;-84
2022/07/28 05:03:13;;;;;;;14.03;5.10;;;;;;;16.44;61.93;99183.33;2227246;80;20968;-84
2022/07/28 05:06:13;;;;;;;9.90;4.95;;;;;;;16.55;61.39;99187.67;2227486;79;20915;-84
2022/07/28 05:09:14;;;;;;;10.32;5.15;;;;;;;16.57;60.98;99186.34;2227272;79;21343;-84
2022/07/28 05:12:14;;;;;;;9.45;4.70;;;;;;;16.67;61.09;99189.38;2226525;79;20888;-84
2022/07/28 05:15:15;;;;;;;12.13;5.10;;;;;;;16.89;61.20;99188.78;2226167;79;20960;-83
2022/07/28 05:18:15;;;;;;;13.53;5.05;;;;;;;17.02;60.50;99186.91;2226362;79;20952;-81
2022/07/28 05:21:15;;;;;;;19.95;6.08;;;;;;;17.21;60.82;99192.45;2225289;80;20904;-82
2022/07/28 05:24:16;;;;;;;7.25;4.55;;;;;;;17.77;59.83;99188.41;2225232;79;21272;-86
2022/07/28 05:27:16;;;;;;;6.67;4.47;;;;;;;17.71;58.47;99186.71;2225139;79;20953;-86
2022/07/28 05:30:17;;;;;;;11.70;4.78;;;;;;;17.70;57.54;99191.56;2224787;79;20935;-84
2022/07/28 05:33:17;;;;;;;10.58;4.92;;;;;;;17.79;57.64;99194.09;2225883;79;21312;-83
2022/07/28 05:36:18;;;;;;;34.73;6.97;;;;;;;18.08;59.80;99192.42;2225130;80;20951;-83
2022/07/28 05:39:18;;;;;;;14.90;4.97;;;;;;;18.70;57.05;99190.72;2225898;79;20935;-83
2022/07/28 05:42:19;;;;;;;63.08;8.05;;;;;;;19.12;57.07;99194.05;2225128;80;21071;-86
2022/07/28 05:45:20;;;;;;;21.27;5.47;;;;;;;19.22;55.00;99196.96;2224985;79;21371;-85
2022/07/28 05:48:20;;;;;;;8.60;3.85;;;;;;;19.18;54.49;99195.27;2226251;79;20968;-85
2022/07/28 05:51:20;;;;;;;5.53;3.95;;;;;;;19.26;54.36;99192.91;2226668;79;20960;-84
2022/07/28 05:54:21;;;;;;;12.30;4.53;;;;;;;19.40;54.66;99188.69;2225605;79;20921;-85
2022/07/28 05:57:21;;;;;;;13.38;4.17;;;;;;;20.25;53.85;99187.48;2227005;79;20947;-84
2022/07/28 06:00:22;;;;;;;9.60;3.80;;;;;;;20.23;52.92;99195.47;2226385;79;20936;-85
2022/07/28 06:03:22;;;;;;;5.70;3.20;;;;;;;20.47;52.52;99195.42;2226210;80;20959;-84
2022/07/28 06:06:23;;;;;;;10.00;3.52;;;;;;;21.08;52.77;99197.10;2226223;79;20892;-85
2022/07/28 06:09:23;;;;;;;8.03;2.83;;;;;;;21.61;50.76;99197.93;2226764;79;20905;-84
2022/07/28 06:12:23;;;;;;;7.10;2.87;;;;;;;21.94;50.46;99197.48;2226315;79;20944;-85
2022/07/28 06:15:24;;;;;;;5.70;2.80;;;;;;;22.36;49.34;99202.48;2225486;79;21411;-85
2022/07/28 06:18:24;;;;;;;11.57;3.90;;;;;;;22.74;49.73;99197.34;2225877;79;20983;-86
2022/07/28 06:21:25;;;;;;;5.22;2.67;;;;;;;22.99;49.80;99204.56;2226034;79;20877;-86
2022/07/28 06:24:25;;;;;;;6.90;2.67;;;;;;;23.22;48.25;99203.34;2226624;79;21320;-85
2022/07/28 06:27:25;;;;;;;368.57;30.92;;;;;;;23.53;46.79;99207.65;2226495;79;20947;-85
2022/07/28 06:30:26;;;;;;;33.80;4.80;;;;;;;23.63;46.24;99205.97;2226217;79;20975;-85
2022/07/28 06:33:26;;;;;;;12.90;3.27;;;;;;;23.47;47.03;99203.41;2225962;79;20908;-86
2022/07/28 06:36:27;;;;;;;3.30;2.35;;;;;;;23.88;46.95;99205.09;2226475;80;20913;-84
2022/07/28 06:39:27;;;;;;;5.60;2.62;;;;;;;24.13;44.13;99204.12;2226781;79;20947;-85
2022/07/28 06:42:28;;;;;;;5.22;2.58;;;;;;;23.81;45.61;99210.64;2226414;79;20916;-82
2022/07/28 06:45:28;;;;;;;7.45;2.80;;;;;;;24.05;44.31;99208.01;2248331;79;20999;-86
2022/07/28 06:48:28;;;;;;;3.52;2.50;;;;;;;24.18;42.66;99207.95;2261693;79;21295;-85
2022/07/28 06:51:29;;;;;;;4.15;2.35;;;;;;;24.38;43.25;99211.27;2262535;79;20920;-85
2022/07/28 06:54:29;;;;;;;3.90;2.25;;;;;;;24.53;41.28;99211.14;2262603;79;20885;-86
2022/07/28 06:57:32;;;;;;;17.50;3.20;;;;;;;24.44;41.71;99214.57;2261547;79;20889;-83
2022/07/28 07:00:30;;;;;;;5.00;2.17;;;;;;;24.68;41.50;99218.54;2261766;79;20971;-85
2022/07/28 07:03:31;;;;;;;9.13;2.40;;;;;;;24.75;42.78;99219.58;2261751;79;21598;-85
2022/07/28 07:06:31;;;;;;;3.33;2.17;;;;;;;25.06;42.55;99217.03;2261758;79;20973;-85
2022/07/28 07:09:31;;;;;;;7.62;2.70;;;;;;;25.24;37.63;99218.97;2261965;79;20952;-85
2022/07/28 07:12:32;;;;;;;3.65;1.92;;;;;;;24.66;39.41;99229.28;2261473;79;20971;-85
2022/07/28 07:15:32;;;;;;;7.95;2.50;;;;;;;24.90;39.36;99231.44;2262048;79;20960;-85
2022/07/28 07:18:33;;;;;;;5.72;2.10;;;;;;;24.94;37.11;99230.84;2262817;79;20928;-84
2022/07/28 07:21:33;;;;;;;5.85;2.40;;;;;;;24.78;37.39;99231.47;2262773;79;20916;-85
2022/07/28 07:24:34;;;;;;;4.03;1.80;;;;;;;24.94;38.85;99228.18;2262704;79;21304;-86
2022/07/28 07:27:34;;;;;;;4.28;2.37;;;;;;;24.89;37.42;99226.16;2261937;79;20960;-85
2022/07/28 07:30:34;;;;;;;4.47;2.20;;;;;;;24.83;36.52;99225.07;2261410;79;20877;-86
2022/07/28 07:33:35;;;;;;;5.92;2.35;;;;;;;24.58;36.64;99223.37;2261475;79;21402;-86
2022/07/28 07:36:35;;;;;;;4.83;2.30;;;;;;;24.60;40.11;99222.84;2261807;79;21067;-86
2022/07/28 07:39:35;;;;;;;5.28;2.30;;;;;;;24.84;39.18;99225.48;2262103;78;20947;-85
2022/07/28 07:42:36;;;;;;;3.42;2.45;;;;;;;25.15;36.41;99224.70;2262788;79;20961;-86
2022/07/28 07:45:36;;;;;;;5.40;2.33;;;;;;;25.20;37.83;99217.36;2241173;78;21035;-86
2022/07/28 07:48:37;;;;;;;4.83;2.40;;;;;;;25.30;37.47;99220.05;2227224;80;20920;-85
2022/07/28 07:51:37;;;;;;;5.72;2.20;;;;;;;25.10;35.09;99226.66;2227529;79;21268;-85
2022/07/28 07:54:37;;;;;;;4.83;2.40;;;;;;;24.97;38.34;99225.38;2227135;79;20991;-86
2022/07/28 07:57:38;;;;;;;3.77;2.30;;;;;;;25.26;35.33;99222.45;2227411;79;20916;-84
2022/07/28 08:00:38;;;;;;;5.55;2.10;;;;;;;24.84;34.85;99230.34;2226076;80;20940;-84
2022/07/28 08:03:39;;;;;;;6.53;2.30;;;;;;;24.62;35.54;99230.33;2226729;79;20914;-85
2022/07/28 08:06:39;;;;;;;3.00;2.12;;;;;;;24.47;35.44;99236.72;2227035;79;20917;-85
2022/07/28 08:09:39;;;;;;;6.05;2.42;;;;;;;24.22;35.59;99226.92;2226941;79;20940;-86
2022/07/28 08:12:40;;;;;;;3.30;2.37;;;;;;;24.56;35.75;99227.90;2227346;79;20869;-86
2022/07/28 08:15:40;;;;;;;4.00;2.30;;;;;;;24.72;36.33;99235.71;2227716;80;21440;-86
2022/07/28 08:18:41;;;;;;;5.22;2.27;;;;;;;24.81;35.29;99241.62;2227493;79;21622;-84
2022/07/28 08:21:41;;;;;;;4.12;1.77;;;;;;;24.75;34.98;99240.93;2226826;79;20877;-85
2022/07/28 08:24:41;;;;;;;3.77;1.90;;;;;;;24.78;36.19;99234.13;2226395;80;20908;-85
2022/07/28 08:27:42;;;;;;;5.25;1.82;;;;;;;25.05;36.00;99232.66;2226341;79;20916;-85
2022/07/28 08:30:42;;;;;;;4.83;2.30;;;;;;;25.54;35.90;99227.95;2226332;79;21049;-85
2022/07/28 08:33:43;;;;;;;11.33;2.92;;;;;;;25.70;35.53;99228.59;2226360;80;20944;-85
2022/07/28 08:36:43;;;;;;;7.62;2.42;;;;;;;25.64;35.34;99222.62;2226744;79;20872;-81
2022/07/28 08:39:44;;;;;;;2.72;1.67;;;;;;;25.73;34.53;99232.08;2226307;79;20943;-85
2022/07/28 08:42:44;;;;;;;2.67;1.92;;;;;;;24.99;33.95;99226.23;2225790;79;20920;-84
2022/07/28 08:45:44;;;;;;;6.62;2.60;;;;;;;24.96;34.69;99227.66;2244987;79;21426;-85
2022/07/28 08:48:45;;;;;;;3.90;2.00;;;;;;;24.76;34.38;99231.98;2260340;79;20940;-85
2022/07/28 08:51:45;;;;;;;13.65;2.90;;;;;;;24.52;35.78;99223.61;2260520;79;20956;-85
2022/07/28 08:54:46;;;;;;;5.50;1.87;;;;;;;25.15;37.19;99222.02;2261550;79;20956;-85
2022/07/28 08:57:46;;;;;;;6.97;2.00;;;;;;;25.87;35.42;99222.51;2262204;79;20916;-85
2022/07/28 09:00:46;;;;;;;7.92;2.17;;;;;;;25.82;34.08;99219.64;2261487;79;20979;-85
2022/07/28 09:03:47;;;;;;;10.25;2.47;;;;;;;25.53;34.92;99209.72;2261014;79;20920;-84
2022/07/28 09:06:47;;;;;;;8.68;2.92;;;;;;;25.95;35.55;99206.98;2261406;79;20880;-84
2022/07/28 09:09:48;;;;;;;4.03;2.10;;;;;;;26.45;33.89;99202.52;2261941;79;20944;-85
2022/07/28 09:12:48;;;;;;;5.97;2.40;;;;;;;25.97;32.33;99214.94;2262253;79;20896;-83
2022/07/28 09:15:48;;;;;;;6.03;2.27;;;;;;;25.46;33.36;99198.02;2262434;79;20987;-86
2022/07/28 09:18:49;;;;;;;2.33;1.80;;;;;;;25.04;33.68;99207.74;2262680;79;20912;-86
2022/07/28 09:21:49;;;;;;;40.15;4.65;;;;;;;24.87;34.11;99214.67;2261557;79;21379;-83
2022/07/28 09:24:50;;;;;;;20.00;3.17;;;;;;;25.30;35.83;99213.37;2262489;79;20908;-85
2022/07/28 09:27:50;;;;;;;3.08;1.77;;;;;;;25.57;35.46;99213.12;2262463;79;20947;-86
2022/07/28 09:30:50;;;;;;;3.22;2.40;;;;;;;26.06;34.56;99212.36;2262685;79;20943;-85
2022/07/28 09:33:51;;;;;;;5.72;2.10;;;;;;;26.05;33.45;99210.62;2261079;79;21315;-85
2022/07/28 09:36:51;;;;;;;6.40;2.17;;;;;;;25.51;33.15;99215.59;2261090;79;20904;-83
2022/07/28 09:39:53;;;;;;;5.85;2.22;;;;;;;25.86;35.06;99211.88;2260951;79;20955;-84
2022/07/28 09:42:56;;;;;;;4.78;1.90;;;;;;;26.05;33.08;99212.83;2261348;79;21624;-84
2022/07/28 09:45:52;;;;;;;5.35;1.98;;;;;;;25.62;32.49;99203.10;2243915;78;20956;-85
2022/07/28 09:48:53;;;;;;;5.65;2.25;;;;;;;25.39;33.42;99206.30;2227956;79;20936;-87
2022/07/28 09:51:53;;;;;;;10.13;2.47;;;;;;;25.58;31.69;99206.84;2228384;79;20928;-85
2022/07/28 09:54:54;;;;;;;10.08;2.12;;;;;;;25.76;34.90;99194.51;2228009;79;20944;-86
2022/07/28 09:57:54;;;;;;;3.85;1.90;;;;;;;26.55;33.92;99195.78;2227288;79;20904;-85
2022/07/28 10:00:55;;;;;;;3.10;1.92;;;;;;;26.77;31.74;99198.77;2226836;79;20944;-86
2022/07/28 10:03:56;;;;;;;2.50;2.00;;;;;;;26.70;31.19;99197.33;2226612;80;20948;-86
2022/07/28 10:06:55;;;;;;;3.50;2.27;;;;;;;26.72;31.13;99191.44;2226173;79;21700;-85
2022/07/28 10:09:56;;;;;;;6.87;2.50;;;;;;;26.48;30.67;99184.97;2226521;79;20948;-86
2022/07/28 10:12:56;;;;;;;4.55;2.02;;;;;;;26.12;31.02;99199.56;2226476;79;20940;-86
2022/07/28 10:16:09;;;;;;;3.33;1.95;;;;;;;25.71;30.98;99202.73;2226913;79;21011;-86
2022/07/28 10:19:19;;;;;;;6.73;2.30;;;;;;;25.76;31.37;99205.20;2227184;79;20932;-84
2022/07/28 10:22:19;;;;;;;8.15;2.35;;;;;;;25.76;31.37;99205.20;2227871;79;20932;-84
2022/07/28 10:25:19;;;;;;;9.15;1.95;;;;;;;25.91;32.20;99200.04;2228292;80;20931;-83
2022/07/28 10:28:21;;;;;;;2.00;1.80;;;;;;;26.36;32.86;99193.58;2228496;79;21280;-85
2022/07/28 10:31:20;;;;;;;4.75;2.00;;;;;;;26.42;30.36;99189.75;2181042;82;20916;-86
2022/07/28 10:34:21;;;;;;;3.00;2.10;;;;;;;26.05;31.53;99189.22;2167854;82;20955;-86
2022/07/28 10:37:21;;;;;;;3.25;2.00;;;;;;;26.31;31.27;99186.20;2141829;83;21332;-86
2022/07/28 10:40:22;;;;;;;5.95;2.02;;;;;;;26.40;31.91;99188.48;2167769;82;21007;-86
2022/07/28 10:43:22;;;;;;;6.40;2.35;;;;;;;26.65;31.35;99186.84;2141849;83;20948;-85
2022/07/28 10:46:22;;;;;;;3.30;1.80;;;;;;;26.50;30.00;99188.92;2159132;81;20985;-85
2022/07/28 10:49:23;;;;;;;8.23;2.33;;;;;;;26.16;30.63;99181.09;2226875;79;21317;-85
2022/07/28 10:52:23;;;;;;;3.85;2.10;;;;;;;26.10;30.23;99191.22;2226737;79;20964;-85
2022/07/28 10:55:23;;;;;;;1.80;1.67;;;;;;;25.88;30.90;99177.91;2227025;79;20948;-85
2022/07/28 10:58:24;;;;;;;2.17;2.00;;;;;;;26.06;30.64;99176.24;2226709;79;21105;-84
2022/07/28 11:01:24;;;;;;;6.40;2.08;;;;;;;26.10;30.19;99175.16;2225902;79;20893;-86
2022/07/28 11:04:25;;;;;;;4.25;1.85;;;;;;;26.09;30.87;99171.63;2226495;79;21374;-87
2022/07/28 11:07:25;;;;;;;3.45;1.80;;;;;;;26.26;30.57;99170.37;2226567;79;20961;-86
2022/07/28 11:10:25;;;;;;;4.70;2.00;;;;;;;26.32;30.27;99171.89;2226946;79;20912;-82
2022/07/28 11:13:26;;;;;;;4.87;2.20;;;;;;;26.51;30.41;99171.45;2226739;79;20890;-85
2022/07/28 11:16:26;;;;;;;4.78;1.80;;;;;;;26.63;29.65;99176.68;2226564;79;20967;-85
2022/07/28 11:19:27;;;;;;;8.73;2.10;;;;;;;26.35;30.25;99173.11;2226830;79;20959;-85
2022/07/28 11:22:27;;;;;;;3.45;2.10;;;;;;;26.43;30.34;99162.05;2227276;79;20954;-85
2022/07/28 11:25:30;;;;;;;4.80;2.15;;;;;;;26.59;30.59;99167.93;2226666;80;21304;-85
2022/07/28 11:28:28;;;;;;;3.92;2.00;;;;;;;26.44;30.44;99172.67;2226280;79;20861;-85
2022/07/28 11:31:28;;;;;;;3.15;2.30;;;;;;;26.30;30.39;99159.92;2226549;79;20912;-85
2022/07/28 11:34:29;;;;;;;4.15;2.25;;;;;;;26.41;30.44;99158.10;2226531;79;20905;-86
2022/07/28 11:37:30;;;;;;;3.37;2.02;;;;;;;26.64;29.67;99168.58;2225510;79;20924;-85
2022/07/28 11:40:30;;;;;;;3.72;2.02;;;;;;;26.47;29.46;99164.97;2226224;79;20972;-85
2022/07/28 11:43:30;;;;;;;6.95;2.33;;;;;;;26.51;29.37;99161.20;2226258;79;21296;-85
2022/07/28 11:46:31;;;;;;;3.25;1.70;;;;;;;26.86;29.90;99156.81;2246648;78;21007;-86
2022/07/28 11:49:31;;;;;;;3.83;2.05;;;;;;;27.08;29.98;99158.88;2262219;79;21337;-85
2022/07/28 11:52:31;;;;;;;2.35;1.98;;;;;;;27.10;29.80;99156.98;2261230;79;20928;-85
2022/07/28 11:55:32;;;;;;;3.58;2.05;;;;;;;27.35;29.15;99157.08;2261090;79;20928;-84
2022/07/28 11:58:32;;;;;;;6.72;2.55;;;;;;;27.21;29.00;99151.09;2260525;79;21229;-85
2022/07/28 12:01:33;;;;;;;2.50;2.10;;;;;;;27.40;28.92;99150.53;2261239;79;21000;-82
2022/07/28 12:04:33;;;;;;;8.53;2.22;;;;;;;27.80;29.36;99143.12;2261129;79;20948;-84
2022/07/28 12:07:33;;;;;;;6.28;2.22;;;;;;;28.05;28.08;99152.05;2260759;79;20888;-83
2022/07/28 12:10:34;;;;;;;3.92;1.72;;;;;;;28.23;28.32;99139.00;2259498;79;21319;-86
2022/07/28 12:13:34;;;;;;;4.60;2.20;;;;;;;28.29;26.91;99148.53;2260041;79;21011;-85
2022/07/28 12:16:35;;;;;;;4.80;2.05;;;;;;;28.13;27.04;99149.34;2259095;79;20976;-85
2022/07/28 12:19:35;;;;;;;4.83;1.90;;;;;;;28.32;27.55;99145.67;2259749;79;20943;-85
2022/07/28 12:22:36;;;;;;;4.20;2.05;;;;;;;28.35;27.28;99150.40;2259099;79;20912;-85
2022/07/28 12:25:36;;;;;;;10.10;2.30;;;;;;;28.71;27.62;99146.61;2258418;79;21367;-79
2022/07/28 12:28:36;;;;;;;3.72;2.25;;;;;;;28.98;28.40;99141.02;2258629;79;20889;-84
2022/07/28 12:31:37;;;;;;;6.60;2.30;;;;;;;29.37;28.28;99136.91;2258924;79;21008;-80
2022/07/28 12:34:38;;;;;;;3.95;1.52;;;;;;;29.39;25.59;99137.69;2259162;79;21105;-85
2022/07/28 12:37:37;;;;;;;5.40;2.20;;;;;;;29.17;26.19;99130.05;2260350;79;21555;-84
2022/07/28 12:40:38;;;;;;;5.92;2.30;;;;;;;28.81;25.36;99141.09;2259758;79;20927;-84
2022/07/28 12:43:38;;;;;;;4.08;1.87;;;;;;;28.89;26.10;99132.15;2260765;79;20892;-86
2022/07/28 12:46:39;;;;;;;3.10;1.90;;;;;;;29.00;25.16;99136.42;2241760;79;21011;-84
2022/07/28 12:49:39;;;;;;;8.38;2.33;;;;;;;28.87;25.43;99130.03;2224957;79;20992;-85
2022/07/28 12:52:40;;;;;;;2.95;2.05;;;;;;;29.09;25.49;99125.60;2225715;79;20870;-86
2022/07/28 12:55:42;;;;;;;4.97;1.70;;;;;;;29.15;25.13;99118.52;2226705;79;20914;-85
2022/07/28 12:58:42;;;;;;;4.87;1.98;;;;;;;29.00;24.14;99131.05;2209352;81;20975;-85
2022/07/28 13:01:46;;;;;;;2.62;1.80;;;;;;;28.78;25.03;99123.81;2223707;80;20948;-84
2022/07/28 13:04:46;;;;;;;3.72;1.92;;;;;;;28.99;24.43;99131.13;2226857;79;20952;-86
2022/07/28 13:07:46;;;;;;;2.85;1.85;;;;;;;29.17;25.09;99125.53;2226263;79;20904;-85
2022/07/28 13:10:47;;;;;;;5.83;1.67;;;;;;;29.14;24.71;99123.50;2226354;80;20991;-84
2022/07/28 13:13:47;;;;;;;2.72;1.77;;;;;;;29.08;24.68;99124.73;2226111;79;20952;-85
2022/07/28 13:16:48;;;;;;;4.12;1.65;;;;;;;29.24;24.96;99126.03;2225755;79;20967;-85
2022/07/28 13:19:48;;;;;;;9.55;2.00;;;;;;;28.99;24.89;99129.79;2225678;80;20948;-85
2022/07/28 13:22:49;;;;;;;7.70;2.37;;;;;;;28.77;24.87;99133.70;2225903;79;20904;-85
2022/07/28 13:25:51;;;;;;;3.42;2.00;;;;;;;28.83;25.11;99133.81;2224536;80;20927;-85
2022/07/28 13:28:49;;;;;;;4.15;2.00;;;;;;;28.81;25.06;99127.67;2224959;79;20917;-85
2022/07/28 13:31:50;;;;;;;5.78;1.92;;;;;;;28.88;25.03;99122.36;2224189;79;21626;-85
2022/07/28 13:34:50;;;;;;;4.37;1.87;;;;;;;28.80;24.43;99125.94;2224621;79;20912;-85
2022/07/28 13:37:51;;;;;;;2.95;1.80;;;;;;;28.66;24.03;99124.05;2224864;79;20952;-82
2022/07/28 13:40:51;;;;;;;3.08;1.92;;;;;;;28.48;24.45;99122.38;2225783;80;20963;-86
2022/07/28 13:43:53;;;;;;;3.45;1.82;;;;;;;28.41;25.06;99125.89;2226051;79;21008;-85
2022/07/28 13:46:52;;;;;;;8.65;2.10;;;;;;;28.54;24.68;99122.90;2226036;79;21015;-85
2022/07/28 13:49:52;;;;;;;2.92;1.87;;;;;;;28.47;24.85;99113.46;2226434;80;20908;-80
2022/07/28 13:52:53;;;;;;;2.50;1.57;;;;;;;28.74;24.43;99119.09;2226382;80;21588;-85
2022/07/28 13:55:53;;;;;;;41.75;4.87;;;;;;;28.76;24.53;99120.35;2227537;79;20917;-80
2022/07/28 13:58:53;;;;;;;4.28;2.20;;;;;;;28.61;25.24;99114.48;2226689;79;20909;-78
2022/07/28 14:01:54;;;;;;;2.52;2.00;;;;;;;28.46;25.63;99117.58;2225819;79;20948;-77
2022/07/28 14:04:54;;;;;;;2.75;1.90;;;;;;;28.08;25.12;99111.64;2226080;79;20953;-78
2022/07/28 14:07:55;;;;;;;3.85;2.05;;;;;;;27.44;25.89;99113.70;2225883;79;20896;-78